sensor_id;sensor_type;location;lat;lon;timestamp;P1;durP1;ratioP1;P2;durP2;ratioP2
37785;SDS011;23625;48.784;9.336;2023-06-10T00:00:16;8.98;;;7.10;;
37785;SDS011;23625;48.784;9.336;2023-06-10T00:02:42;13.80;;;7.18;;
37785;SDS011;23625;48.784;9.336;2023-06-10T00:05:08;10.02;;;7.00;;
37785;SDS011;23625;48.784;9.336;2023-06-10T00:07:35;8.30;;;6.35;;
37785;SDS011;23625;48.784;9.336;2023-06-10T00:10:06;9.68;;;7.40;;
37785;SDS011;23625;48.784;9.336;2023-06-10T00:12:32;10.60;;;7.00;;
37785;SDS011;23625;48.784;9.336;2023-06-10T00:15:02;9.10;;;6.70;;
37785;SDS011;23625;48.784;9.336;2023-06-10T00:17:31;14.57;;;7.40;;
37785;SDS011;23625;48.784;9.336;2023-06-10T00:19:57;13.35;;;7.30;;
37785;SDS011;23625;48.784;9.336;2023-06-10T00:22:23;11.13;;;7.05;;
37785;SDS011;23625;48.784;9.336;2023-06-10T00:24:54;7.85;;;6.47;;
37785;SDS011;23625;48.784;9.336;2023-06-10T00:27:20;11.50;;;7.35;;
37785;SDS011;23625;48.784;9.336;2023-06-10T00:29:46;14.63;;;8.05;;
37785;SDS011;23625;48.784;9.336;2023-06-10T00:32:12;8.77;;;6.30;;
37785;SDS011;23625;48.784;9.336;2023-06-10T00:34:37;10.82;;;7.43;;
37785;SDS011;23625;48.784;9.336;2023-06-10T00:37:03;17.05;;;7.70;;
37785;SDS011;23625;48.784;9.336;2023-06-10T00:39:28;13.07;;;6.72;;
37785;SDS011;23625;48.784;9.336;2023-06-10T00:41:54;12.27;;;7.22;;
37785;SDS011;23625;48.784;9.336;2023-06-10T00:44:20;9.32;;;6.72;;
37785;SDS011;23625;48.784;9.336;2023-06-10T00:46:45;12.25;;;7.20;;
37785;SDS011;23625;48.784;9.336;2023-06-10T00:49:11;10.70;;;7.47;;
37785;SDS011;23625;48.784;9.336;2023-06-10T00:51:37;12.63;;;7.97;;
37785;SDS011;23625;48.784;9.336;2023-06-10T00:54:04;11.63;;;7.60;;
37785;SDS011;23625;48.784;9.336;2023-06-10T00:56:30;8.90;;;6.93;;
37785;SDS011;23625;48.784;9.336;2023-06-10T00:58:57;9.00;;;7.13;;
37785;SDS011;23625;48.784;9.336;2023-06-10T01:01:23;13.60;;;7.93;;
37785;SDS011;23625;48.784;9.336;2023-06-10T01:03:50;8.40;;;6.68;;
37785;SDS011;23625;48.784;9.336;2023-06-10T01:08:58;13.13;;;7.47;;
37785;SDS011;23625;48.784;9.336;2023-06-10T01:11:29;12.68;;;7.47;;
37785;SDS011;23625;48.784;9.336;2023-06-10T01:14:01;9.65;;;7.20;;
37785;SDS011;23625;48.784;9.336;2023-06-10T01:16:30;11.77;;;7.45;;
37785;SDS011;23625;48.784;9.336;2023-06-10T01:18:56;9.13;;;7.60;;
37785;SDS011;23625;48.784;9.336;2023-06-10T01:21:22;13.00;;;7.43;;
37785;SDS011;23625;48.784;9.336;2023-06-10T01:23:52;10.98;;;7.63;;
37785;SDS011;23625;48.784;9.336;2023-06-10T01:26:21;12.30;;;7.28;;
37785;SDS011;23625;48.784;9.336;2023-06-10T01:31:33;11.25;;;7.18;;
37785;SDS011;23625;48.784;9.336;2023-06-10T01:34:19;9.57;;;7.00;;
37785;SDS011;23625;48.784;9.336;2023-06-10T01:36:48;10.00;;;6.32;;
37785;SDS011;23625;48.784;9.336;2023-06-10T01:39:15;15.23;;;7.70;;
37785;SDS011;23625;48.784;9.336;2023-06-10T01:41:43;12.48;;;7.88;;
37785;SDS011;23625;48.784;9.336;2023-06-10T01:44:09;14.43;;;7.05;;
37785;SDS011;23625;48.784;9.336;2023-06-10T01:46:35;9.50;;;7.07;;
37785;SDS011;23625;48.784;9.336;2023-06-10T01:49:01;9.60;;;7.35;;
37785;SDS011;23625;48.784;9.336;2023-06-10T01:51:27;11.52;;;7.88;;
37785;SDS011;23625;48.784;9.336;2023-06-10T01:53:52;11.43;;;7.38;;
37785;SDS011;23625;48.784;9.336;2023-06-10T01:56:18;12.60;;;7.93;;
37785;SDS011;23625;48.784;9.336;2023-06-10T01:58:47;15.35;;;7.75;;
37785;SDS011;23625;48.784;9.336;2023-06-10T02:01:13;9.43;;;7.10;;
37785;SDS011;23625;48.784;9.336;2023-06-10T02:03:39;8.95;;;7.10;;
37785;SDS011;23625;48.784;9.336;2023-06-10T02:06:05;11.80;;;7.30;;
37785;SDS011;23625;48.784;9.336;2023-06-10T02:08:31;12.40;;;6.60;;
37785;SDS011;23625;48.784;9.336;2023-06-10T02:10:56;9.68;;;7.30;;
37785;SDS011;23625;48.784;9.336;2023-06-10T02:13:22;9.85;;;7.22;;
37785;SDS011;23625;48.784;9.336;2023-06-10T02:15:47;11.40;;;7.43;;
37785;SDS011;23625;48.784;9.336;2023-06-10T02:18:13;10.15;;;7.20;;
37785;SDS011;23625;48.784;9.336;2023-06-10T02:20:38;13.40;;;7.57;;
37785;SDS011;23625;48.784;9.336;2023-06-10T02:23:04;9.07;;;7.30;;
37785;SDS011;23625;48.784;9.336;2023-06-10T02:25:30;8.82;;;6.78;;
37785;SDS011;23625;48.784;9.336;2023-06-10T02:27:55;10.57;;;6.78;;
37785;SDS011;23625;48.784;9.336;2023-06-10T02:30:21;9.40;;;6.60;;
37785;SDS011;23625;48.784;9.336;2023-06-10T02:32:47;11.27;;;7.20;;
37785;SDS011;23625;48.784;9.336;2023-06-10T02:35:16;13.45;;;7.22;;
37785;SDS011;23625;48.784;9.336;2023-06-10T02:37:42;10.38;;;6.97;;
37785;SDS011;23625;48.784;9.336;2023-06-10T02:40:08;10.65;;;7.72;;
37785;SDS011;23625;48.784;9.336;2023-06-10T02:42:35;9.88;;;7.55;;
37785;SDS011;23625;48.784;9.336;2023-06-10T02:45:01;13.30;;;7.40;;
37785;SDS011;23625;48.784;9.336;2023-06-10T02:47:27;13.57;;;7.88;;
37785;SDS011;23625;48.784;9.336;2023-06-10T02:49:52;10.52;;;7.60;;
37785;SDS011;23625;48.784;9.336;2023-06-10T02:52:18;13.43;;;7.28;;
37785;SDS011;23625;48.784;9.336;2023-06-10T02:54:43;9.50;;;6.50;;
37785;SDS011;23625;48.784;9.336;2023-06-10T02:57:10;10.20;;;7.50;;
37785;SDS011;23625;48.784;9.336;2023-06-10T02:59:36;9.75;;;7.30;;
37785;SDS011;23625;48.784;9.336;2023-06-10T03:02:01;12.05;;;7.13;;
37785;SDS011;23625;48.784;9.336;2023-06-10T03:04:27;10.35;;;7.05;;
37785;SDS011;23625;48.784;9.336;2023-06-10T03:06:54;11.95;;;6.80;;
37785;SDS011;23625;48.784;9.336;2023-06-10T03:09:20;9.93;;;7.15;;
37785;SDS011;23625;48.784;9.336;2023-06-10T03:11:45;10.73;;;7.80;;
37785;SDS011;23625;48.784;9.336;2023-06-10T03:14:11;9.90;;;6.90;;
37785;SDS011;23625;48.784;9.336;2023-06-10T03:16:37;12.15;;;7.70;;
37785;SDS011;23625;48.784;9.336;2023-06-10T03:19:05;14.57;;;7.82;;
37785;SDS011;23625;48.784;9.336;2023-06-10T03:21:32;12.23;;;7.03;;
37785;SDS011;23625;48.784;9.336;2023-06-10T03:23:58;8.75;;;6.57;;
37785;SDS011;23625;48.784;9.336;2023-06-10T03:26:24;12.27;;;6.60;;
37785;SDS011;23625;48.784;9.336;2023-06-10T03:28:49;11.50;;;7.07;;
37785;SDS011;23625;48.784;9.336;2023-06-10T03:31:15;8.52;;;6.10;;
37785;SDS011;23625;48.784;9.336;2023-06-10T03:33:41;13.25;;;7.18;;
37785;SDS011;23625;48.784;9.336;2023-06-10T03:36:07;11.40;;;7.20;;
37785;SDS011;23625;48.784;9.336;2023-06-10T03:38:33;9.02;;;6.70;;
37785;SDS011;23625;48.784;9.336;2023-06-10T03:40:59;13.95;;;6.80;;
37785;SDS011;23625;48.784;9.336;2023-06-10T03:43:24;9.57;;;7.07;;
37785;SDS011;23625;48.784;9.336;2023-06-10T03:45:50;13.48;;;6.88;;
37785;SDS011;23625;48.784;9.336;2023-06-10T03:48:16;9.65;;;7.25;;
37785;SDS011;23625;48.784;9.336;2023-06-10T03:50:42;12.05;;;6.93;;
37785;SDS011;23625;48.784;9.336;2023-06-10T03:53:07;10.57;;;6.22;;
37785;SDS011;23625;48.784;9.336;2023-06-10T03:55:33;11.25;;;6.75;;
37785;SDS011;23625;48.784;9.336;2023-06-10T03:57:58;11.38;;;7.07;;
37785;SDS011;23625;48.784;9.336;2023-06-10T04:00:24;8.32;;;5.82;;
37785;SDS011;23625;48.784;9.336;2023-06-10T04:02:50;9.70;;;7.13;;
37785;SDS011;23625;48.784;9.336;2023-06-10T04:05:17;10.20;;;6.75;;
37785;SDS011;23625;48.784;9.336;2023-06-10T04:07:44;8.90;;;6.57;;
37785;SDS011;23625;48.784;9.336;2023-06-10T04:10:10;11.52;;;6.00;;
37785;SDS011;23625;48.784;9.336;2023-06-10T04:12:36;9.82;;;6.97;;
37785;SDS011;23625;48.784;9.336;2023-06-10T04:15:03;9.13;;;6.40;;
37785;SDS011;23625;48.784;9.336;2023-06-10T04:17:29;13.40;;;8.40;;
37785;SDS011;23625;48.784;9.336;2023-06-10T04:19:55;12.95;;;6.68;;
37785;SDS011;23625;48.784;9.336;2023-06-10T04:22:21;9.98;;;6.72;;
37785;SDS011;23625;48.784;9.336;2023-06-10T04:24:47;14.40;;;6.60;;
37785;SDS011;23625;48.784;9.336;2023-06-10T04:27:13;12.50;;;7.53;;
37785;SDS011;23625;48.784;9.336;2023-06-10T04:29:39;11.32;;;6.90;;
37785;SDS011;23625;48.784;9.336;2023-06-10T04:32:05;11.20;;;7.13;;
37785;SDS011;23625;48.784;9.336;2023-06-10T04:34:32;10.93;;;6.93;;
37785;SDS011;23625;48.784;9.336;2023-06-10T04:36:58;10.55;;;6.22;;
37785;SDS011;23625;48.784;9.336;2023-06-10T04:39:24;8.77;;;6.57;;
37785;SDS011;23625;48.784;9.336;2023-06-10T04:41:49;8.27;;;6.00;;
37785;SDS011;23625;48.784;9.336;2023-06-10T04:44:15;9.70;;;6.03;;
37785;SDS011;23625;48.784;9.336;2023-06-10T04:46:41;9.18;;;6.32;;
37785;SDS011;23625;48.784;9.336;2023-06-10T04:49:06;11.43;;;6.32;;
37785;SDS011;23625;48.784;9.336;2023-06-10T04:51:32;10.70;;;7.07;;
37785;SDS011;23625;48.784;9.336;2023-06-10T04:53:58;14.75;;;7.45;;
37785;SDS011;23625;48.784;9.336;2023-06-10T04:56:27;10.00;;;6.82;;
37785;SDS011;23625;48.784;9.336;2023-06-10T04:58:53;14.13;;;7.65;;
37785;SDS011;23625;48.784;9.336;2023-06-10T05:01:19;10.25;;;6.47;;
37785;SDS011;23625;48.784;9.336;2023-06-10T05:03:44;9.77;;;7.15;;
37785;SDS011;23625;48.784;9.336;2023-06-10T05:06:10;10.25;;;6.60;;
37785;SDS011;23625;48.784;9.336;2023-06-10T05:08:36;11.52;;;6.63;;
37785;SDS011;23625;48.784;9.336;2023-06-10T05:11:01;10.45;;;7.45;;
37785;SDS011;23625;48.784;9.336;2023-06-10T05:13:27;15.52;;;8.25;;
37785;SDS011;23625;48.784;9.336;2023-06-10T05:15:52;11.32;;;7.65;;
37785;SDS011;23625;48.784;9.336;2023-06-10T05:18:18;14.18;;;7.70;;
37785;SDS011;23625;48.784;9.336;2023-06-10T05:20:43;12.95;;;8.10;;
37785;SDS011;23625;48.784;9.336;2023-06-10T05:23:09;11.75;;;7.55;;
37785;SDS011;23625;48.784;9.336;2023-06-10T05:25:35;11.32;;;6.97;;
37785;SDS011;23625;48.784;9.336;2023-06-10T05:28:01;14.23;;;7.75;;
37785;SDS011;23625;48.784;9.336;2023-06-10T05:30:26;13.60;;;8.25;;
37785;SDS011;23625;48.784;9.336;2023-06-10T05:32:52;11.10;;;7.40;;
37785;SDS011;23625;48.784;9.336;2023-06-10T05:35:18;12.48;;;8.27;;
37785;SDS011;23625;48.784;9.336;2023-06-10T05:37:44;12.30;;;8.20;;
37785;SDS011;23625;48.784;9.336;2023-06-10T05:40:10;11.50;;;7.88;;
37785;SDS011;23625;48.784;9.336;2023-06-10T05:42:36;10.70;;;7.10;;
37785;SDS011;23625;48.784;9.336;2023-06-10T05:45:02;10.18;;;7.10;;
37785;SDS011;23625;48.784;9.336;2023-06-10T05:47:28;9.85;;;7.00;;
37785;SDS011;23625;48.784;9.336;2023-06-10T05:49:53;8.88;;;6.32;;
37785;SDS011;23625;48.784;9.336;2023-06-10T05:52:19;11.57;;;6.97;;
37785;SDS011;23625;48.784;9.336;2023-06-10T05:54:44;11.70;;;6.97;;
37785;SDS011;23625;48.784;9.336;2023-06-10T05:57:10;10.85;;;7.22;;
37785;SDS011;23625;48.784;9.336;2023-06-10T05:59:36;13.45;;;6.70;;
37785;SDS011;23625;48.784;9.336;2023-06-10T06:02:01;12.45;;;6.60;;
37785;SDS011;23625;48.784;9.336;2023-06-10T06:04:27;12.18;;;6.47;;
37785;SDS011;23625;48.784;9.336;2023-06-10T06:06:52;15.43;;;8.05;;
37785;SDS011;23625;48.784;9.336;2023-06-10T06:09:18;64.72;;;37.30;;
37785;SDS011;23625;48.784;9.336;2023-06-10T06:11:44;33.80;;;21.13;;
37785;SDS011;23625;48.784;9.336;2023-06-10T06:14:09;19.63;;;12.63;;
37785;SDS011;23625;48.784;9.336;2023-06-10T06:16:35;10.55;;;7.13;;
37785;SDS011;23625;48.784;9.336;2023-06-10T06:19:00;11.73;;;6.10;;
37785;SDS011;23625;48.784;9.336;2023-06-10T06:21:26;10.05;;;6.40;;
37785;SDS011;23625;48.784;9.336;2023-06-10T06:23:51;14.02;;;6.68;;
37785;SDS011;23625;48.784;9.336;2023-06-10T06:26:17;8.40;;;5.40;;
37785;SDS011;23625;48.784;9.336;2023-06-10T06:28:43;8.70;;;6.28;;
37785;SDS011;23625;48.784;9.336;2023-06-10T06:31:08;8.48;;;6.38;;
37785;SDS011;23625;48.784;9.336;2023-06-10T06:33:34;11.32;;;5.95;;
37785;SDS011;23625;48.784;9.336;2023-06-10T06:36:00;8.63;;;6.03;;
37785;SDS011;23625;48.784;9.336;2023-06-10T06:38:26;11.88;;;6.60;;
37785;SDS011;23625;48.784;9.336;2023-06-10T06:40:51;9.05;;;6.13;;
37785;SDS011;23625;48.784;9.336;2023-06-10T06:43:17;9.30;;;5.93;;
37785;SDS011;23625;48.784;9.336;2023-06-10T06:45:43;8.98;;;6.10;;
37785;SDS011;23625;48.784;9.336;2023-06-10T06:48:10;12.60;;;6.43;;
37785;SDS011;23625;48.784;9.336;2023-06-10T06:50:36;8.88;;;6.55;;
37785;SDS011;23625;48.784;9.336;2023-06-10T06:53:02;12.18;;;6.55;;
37785;SDS011;23625;48.784;9.336;2023-06-10T06:55:28;11.48;;;6.35;;
37785;SDS011;23625;48.784;9.336;2023-06-10T06:57:53;9.68;;;5.78;;
37785;SDS011;23625;48.784;9.336;2023-06-10T07:00:19;10.80;;;6.55;;
37785;SDS011;23625;48.784;9.336;2023-06-10T07:02:45;7.40;;;5.50;;
37785;SDS011;23625;48.784;9.336;2023-06-10T07:05:10;13.98;;;6.45;;
37785;SDS011;23625;48.784;9.336;2023-06-10T07:07:36;8.00;;;5.47;;
37785;SDS011;23625;48.784;9.336;2023-06-10T07:10:01;10.52;;;5.88;;
37785;SDS011;23625;48.784;9.336;2023-06-10T07:12:27;8.52;;;6.13;;
37785;SDS011;23625;48.784;9.336;2023-06-10T07:14:53;12.27;;;5.63;;
37785;SDS011;23625;48.784;9.336;2023-06-10T07:17:18;9.73;;;6.05;;
37785;SDS011;23625;48.784;9.336;2023-06-10T07:19:45;6.88;;;5.75;;
37785;SDS011;23625;48.784;9.336;2023-06-10T07:22:10;8.60;;;5.97;;
37785;SDS011;23625;48.784;9.336;2023-06-10T07:24:36;8.13;;;5.45;;
37785;SDS011;23625;48.784;9.336;2023-06-10T07:27:01;7.30;;;5.75;;
37785;SDS011;23625;48.784;9.336;2023-06-10T07:29:27;10.20;;;6.03;;
37785;SDS011;23625;48.784;9.336;2023-06-10T07:31:53;7.03;;;5.63;;
37785;SDS011;23625;48.784;9.336;2023-06-10T07:34:18;7.95;;;5.43;;
37785;SDS011;23625;48.784;9.336;2023-06-10T07:36:44;6.90;;;5.38;;
37785;SDS011;23625;48.784;9.336;2023-06-10T07:39:10;8.30;;;5.18;;
37785;SDS011;23625;48.784;9.336;2023-06-10T07:41:35;7.95;;;4.95;;
37785;SDS011;23625;48.784;9.336;2023-06-10T07:44:01;7.40;;;4.72;;
37785;SDS011;23625;48.784;9.336;2023-06-10T07:46:27;8.38;;;5.05;;
37785;SDS011;23625;48.784;9.336;2023-06-10T07:48:56;5.97;;;4.55;;
37785;SDS011;23625;48.784;9.336;2023-06-10T07:51:21;8.35;;;5.05;;
37785;SDS011;23625;48.784;9.336;2023-06-10T07:53:47;5.57;;;4.65;;
37785;SDS011;23625;48.784;9.336;2023-06-10T07:56:12;7.25;;;5.05;;
37785;SDS011;23625;48.784;9.336;2023-06-10T07:58:38;7.15;;;4.63;;
37785;SDS011;23625;48.784;9.336;2023-06-10T08:01:04;6.47;;;5.00;;
37785;SDS011;23625;48.784;9.336;2023-06-10T08:03:30;7.80;;;5.32;;
37785;SDS011;23625;48.784;9.336;2023-06-10T08:05:55;6.88;;;5.15;;
37785;SDS011;23625;48.784;9.336;2023-06-10T08:08:21;6.15;;;4.60;;
37785;SDS011;23625;48.784;9.336;2023-06-10T08:10:46;6.30;;;4.70;;
37785;SDS011;23625;48.784;9.336;2023-06-10T08:13:13;7.88;;;5.53;;
37785;SDS011;23625;48.784;9.336;2023-06-10T08:15:38;8.27;;;5.28;;
37785;SDS011;23625;48.784;9.336;2023-06-10T08:18:04;6.18;;;4.95;;
37785;SDS011;23625;48.784;9.336;2023-06-10T08:20:29;7.18;;;4.68;;
37785;SDS011;23625;48.784;9.336;2023-06-10T08:22:55;5.90;;;4.57;;
37785;SDS011;23625;48.784;9.336;2023-06-10T08:25:20;5.55;;;4.50;;
37785;SDS011;23625;48.784;9.336;2023-06-10T08:27:47;5.95;;;4.30;;
37785;SDS011;23625;48.784;9.336;2023-06-10T08:30:13;8.07;;;5.00;;
37785;SDS011;23625;48.784;9.336;2023-06-10T08:32:39;5.40;;;4.68;;
37785;SDS011;23625;48.784;9.336;2023-06-10T08:35:05;9.07;;;4.53;;
37785;SDS011;23625;48.784;9.336;2023-06-10T08:37:31;12.27;;;5.18;;
37785;SDS011;23625;48.784;9.336;2023-06-10T08:39:56;5.35;;;4.43;;
37785;SDS011;23625;48.784;9.336;2023-06-10T08:42:22;5.30;;;4.20;;
37785;SDS011;23625;48.784;9.336;2023-06-10T08:45:05;6.05;;;4.50;;
37785;SDS011;23625;48.784;9.336;2023-06-10T08:47:36;6.28;;;4.57;;
37785;SDS011;23625;48.784;9.336;2023-06-10T08:50:07;5.43;;;4.10;;
37785;SDS011;23625;48.784;9.336;2023-06-10T08:52:34;5.50;;;4.65;;
37785;SDS011;23625;48.784;9.336;2023-06-10T08:55:05;5.65;;;4.30;;
37785;SDS011;23625;48.784;9.336;2023-06-10T08:57:36;6.57;;;4.07;;
37785;SDS011;23625;48.784;9.336;2023-06-10T09:00:02;5.57;;;4.30;;
37785;SDS011;23625;48.784;9.336;2023-06-10T09:02:28;5.35;;;4.43;;
37785;SDS011;23625;48.784;9.336;2023-06-10T09:04:55;6.03;;;4.88;;
37785;SDS011;23625;48.784;9.336;2023-06-10T09:07:22;6.18;;;4.32;;
37785;SDS011;23625;48.784;9.336;2023-06-10T09:09:48;6.30;;;4.90;;
37785;SDS011;23625;48.784;9.336;2023-06-10T09:12:14;5.28;;;4.22;;
37785;SDS011;23625;48.784;9.336;2023-06-10T09:14:45;6.57;;;4.32;;
37785;SDS011;23625;48.784;9.336;2023-06-10T09:17:11;5.40;;;4.30;;
37785;SDS011;23625;48.784;9.336;2023-06-10T09:19:36;10.82;;;4.50;;
37785;SDS011;23625;48.784;9.336;2023-06-10T09:22:04;5.68;;;4.93;;
37785;SDS011;23625;48.784;9.336;2023-06-10T09:24:30;6.95;;;4.43;;
37785;SDS011;23625;48.784;9.336;2023-06-10T09:27:04;6.30;;;4.55;;
37785;SDS011;23625;48.784;9.336;2023-06-10T09:29:31;5.45;;;4.78;;
37785;SDS011;23625;48.784;9.336;2023-06-10T09:32:09;6.05;;;4.32;;
37785;SDS011;23625;48.784;9.336;2023-06-10T09:34:35;5.88;;;4.43;;
37785;SDS011;23625;48.784;9.336;2023-06-10T09:37:01;8.50;;;4.90;;
37785;SDS011;23625;48.784;9.336;2023-06-10T09:39:27;6.72;;;4.68;;
37785;SDS011;23625;48.784;9.336;2023-06-10T09:41:53;5.82;;;4.63;;
37785;SDS011;23625;48.784;9.336;2023-06-10T09:44:19;7.57;;;4.65;;
37785;SDS011;23625;48.784;9.336;2023-06-10T09:46:47;6.00;;;3.75;;
37785;SDS011;23625;48.784;9.336;2023-06-10T09:49:15;8.10;;;5.15;;
37785;SDS011;23625;48.784;9.336;2023-06-10T09:51:52;4.25;;;3.85;;
37785;SDS011;23625;48.784;9.336;2023-06-10T09:54:18;4.68;;;4.18;;
37785;SDS011;23625;48.784;9.336;2023-06-10T09:56:48;5.38;;;4.10;;
37785;SDS011;23625;48.784;9.336;2023-06-10T09:59:14;5.55;;;3.92;;
37785;SDS011;23625;48.784;9.336;2023-06-10T10:01:41;5.00;;;4.10;;
37785;SDS011;23625;48.784;9.336;2023-06-10T10:04:06;5.75;;;3.97;;
37785;SDS011;23625;48.784;9.336;2023-06-10T10:06:32;5.68;;;4.40;;
37785;SDS011;23625;48.784;9.336;2023-06-10T10:09:00;5.47;;;4.40;;
37785;SDS011;23625;48.784;9.336;2023-06-10T10:11:26;8.43;;;4.13;;
37785;SDS011;23625;48.784;9.336;2023-06-10T10:13:52;4.18;;;3.78;;
37785;SDS011;23625;48.784;9.336;2023-06-10T10:16:33;12.25;;;4.13;;
37785;SDS011;23625;48.784;9.336;2023-06-10T10:19:04;6.05;;;4.10;;
37785;SDS011;23625;48.784;9.336;2023-06-10T10:21:35;5.85;;;4.28;;
37785;SDS011;23625;48.784;9.336;2023-06-10T10:26:40;7.82;;;4.47;;
37785;SDS011;23625;48.784;9.336;2023-06-10T10:29:10;8.55;;;4.05;;
37785;SDS011;23625;48.784;9.336;2023-06-10T10:31:42;4.88;;;3.85;;
37785;SDS011;23625;48.784;9.336;2023-06-10T10:34:15;6.18;;;3.83;;
37785;SDS011;23625;48.784;9.336;2023-06-10T10:36:43;3.95;;;3.58;;
37785;SDS011;23625;48.784;9.336;2023-06-10T10:39:10;4.78;;;3.78;;
37785;SDS011;23625;48.784;9.336;2023-06-10T10:41:37;4.47;;;3.63;;
37785;SDS011;23625;48.784;9.336;2023-06-10T10:44:04;7.40;;;4.35;;
37785;SDS011;23625;48.784;9.336;2023-06-10T10:46:41;4.90;;;4.13;;
37785;SDS011;23625;48.784;9.336;2023-06-10T10:49:08;8.02;;;3.88;;
37785;SDS011;23625;48.784;9.336;2023-06-10T10:51:35;6.95;;;4.15;;
37785;SDS011;23625;48.784;9.336;2023-06-10T10:54:12;7.07;;;4.10;;
37785;SDS011;23625;48.784;9.336;2023-06-10T10:56:38;5.53;;;4.18;;
37785;SDS011;23625;48.784;9.336;2023-06-10T10:59:04;6.22;;;4.65;;
37785;SDS011;23625;48.784;9.336;2023-06-10T11:01:41;7.18;;;3.92;;
37785;SDS011;23625;48.784;9.336;2023-06-10T11:04:10;4.97;;;3.92;;
37785;SDS011;23625;48.784;9.336;2023-06-10T11:06:36;4.55;;;3.67;;
37785;SDS011;23625;48.784;9.336;2023-06-10T11:09:24;5.88;;;3.80;;
37785;SDS011;23625;48.784;9.336;2023-06-10T11:11:51;6.07;;;4.80;;
37785;SDS011;23625;48.784;9.336;2023-06-10T11:14:26;5.70;;;4.38;;
37785;SDS011;23625;48.784;9.336;2023-06-10T11:16:57;5.85;;;4.57;;
37785;SDS011;23625;48.784;9.336;2023-06-10T11:19:36;5.47;;;4.63;;
37785;SDS011;23625;48.784;9.336;2023-06-10T11:22:05;4.95;;;4.45;;
37785;SDS011;23625;48.784;9.336;2023-06-10T11:24:32;4.82;;;4.22;;
37785;SDS011;23625;48.784;9.336;2023-06-10T11:27:16;6.00;;;3.70;;
37785;SDS011;23625;48.784;9.336;2023-06-10T11:32:20;10.20;;;4.25;;
37785;SDS011;23625;48.784;9.336;2023-06-10T11:34:51;7.57;;;4.80;;
37785;SDS011;23625;48.784;9.336;2023-06-10T11:37:18;6.70;;;4.32;;
37785;SDS011;23625;48.784;9.336;2023-06-10T11:39:43;5.13;;;3.92;;
37785;SDS011;23625;48.784;9.336;2023-06-10T11:42:10;6.25;;;4.30;;
37785;SDS011;23625;48.784;9.336;2023-06-10T11:44:36;6.40;;;4.60;;
37785;SDS011;23625;48.784;9.336;2023-06-10T11:47:03;8.52;;;3.92;;
37785;SDS011;23625;48.784;9.336;2023-06-10T11:49:29;5.53;;;3.90;;
37785;SDS011;23625;48.784;9.336;2023-06-10T11:51:55;5.00;;;3.97;;
37785;SDS011;23625;48.784;9.336;2023-06-10T11:54:21;6.97;;;4.05;;
37785;SDS011;23625;48.784;9.336;2023-06-10T11:56:47;7.10;;;4.22;;
37785;SDS011;23625;48.784;9.336;2023-06-10T11:59:13;5.05;;;3.85;;
37785;SDS011;23625;48.784;9.336;2023-06-10T12:01:43;5.97;;;3.90;;
37785;SDS011;23625;48.784;9.336;2023-06-10T12:04:10;6.28;;;4.40;;
37785;SDS011;23625;48.784;9.336;2023-06-10T12:06:44;6.47;;;3.83;;
37785;SDS011;23625;48.784;9.336;2023-06-10T12:11:39;7.30;;;4.40;;
37785;SDS011;23625;48.784;9.336;2023-06-10T12:14:05;5.72;;;3.65;;
37785;SDS011;23625;48.784;9.336;2023-06-10T12:16:31;10.52;;;3.22;;
37785;SDS011;23625;48.784;9.336;2023-06-10T12:19:00;5.47;;;4.18;;
37785;SDS011;23625;48.784;9.336;2023-06-10T12:21:28;6.63;;;3.83;;
37785;SDS011;23625;48.784;9.336;2023-06-10T12:24:27;5.47;;;3.25;;
37785;SDS011;23625;48.784;9.336;2023-06-10T12:26:45;6.28;;;3.60;;
37785;SDS011;23625;48.784;9.336;2023-06-10T12:32:03;5.90;;;3.92;;
37785;SDS011;23625;48.784;9.336;2023-06-10T12:34:31;5.50;;;3.47;;
37785;SDS011;23625;48.784;9.336;2023-06-10T12:37:04;5.72;;;4.05;;
37785;SDS011;23625;48.784;9.336;2023-06-10T12:39:32;5.25;;;4.03;;
37785;SDS011;23625;48.784;9.336;2023-06-10T12:41:59;4.40;;;3.38;;
37785;SDS011;23625;48.784;9.336;2023-06-10T12:44:29;4.25;;;3.80;;
37785;SDS011;23625;48.784;9.336;2023-06-10T12:46:55;4.10;;;3.42;;
37785;SDS011;23625;48.784;9.336;2023-06-10T12:49:21;8.40;;;3.90;;
37785;SDS011;23625;48.784;9.336;2023-06-10T12:51:47;3.97;;;3.58;;
37785;SDS011;23625;48.784;9.336;2023-06-10T12:54:12;6.00;;;3.47;;
37785;SDS011;23625;48.784;9.336;2023-06-10T12:56:38;5.07;;;3.45;;
37785;SDS011;23625;48.784;9.336;2023-06-10T12:59:04;9.60;;;4.75;;
37785;SDS011;23625;48.784;9.336;2023-06-10T13:01:30;4.10;;;3.40;;
37785;SDS011;23625;48.784;9.336;2023-06-10T13:03:56;6.20;;;3.95;;
37785;SDS011;23625;48.784;9.336;2023-06-10T13:06:22;6.20;;;4.32;;
37785;SDS011;23625;48.784;9.336;2023-06-10T13:08:48;4.15;;;3.35;;
37785;SDS011;23625;48.784;9.336;2023-06-10T13:11:13;5.72;;;3.65;;
37785;SDS011;23625;48.784;9.336;2023-06-10T13:13:39;3.97;;;3.58;;
37785;SDS011;23625;48.784;9.336;2023-06-10T13:16:05;4.60;;;3.88;;
37785;SDS011;23625;48.784;9.336;2023-06-10T13:18:32;5.05;;;4.10;;
37785;SDS011;23625;48.784;9.336;2023-06-10T13:21:05;4.78;;;3.15;;
37785;SDS011;23625;48.784;9.336;2023-06-10T13:23:31;4.50;;;3.45;;
37785;SDS011;23625;48.784;9.336;2023-06-10T13:25:57;4.30;;;3.35;;
37785;SDS011;23625;48.784;9.336;2023-06-10T13:28:23;8.68;;;3.40;;
37785;SDS011;23625;48.784;9.336;2023-06-10T13:30:49;4.32;;;3.30;;
37785;SDS011;23625;48.784;9.336;2023-06-10T13:33:15;4.72;;;3.45;;
37785;SDS011;23625;48.784;9.336;2023-06-10T13:35:41;4.03;;;3.38;;
37785;SDS011;23625;48.784;9.336;2023-06-10T13:38:06;5.20;;;3.88;;
37785;SDS011;23625;48.784;9.336;2023-06-10T13:40:32;4.75;;;3.97;;
37785;SDS011;23625;48.784;9.336;2023-06-10T13:42:58;6.95;;;3.95;;
37785;SDS011;23625;48.784;9.336;2023-06-10T13:45:24;4.07;;;3.25;;
37785;SDS011;23625;48.784;9.336;2023-06-10T13:47:49;5.28;;;3.55;;
37785;SDS011;23625;48.784;9.336;2023-06-10T13:50:15;3.63;;;2.85;;
37785;SDS011;23625;48.784;9.336;2023-06-10T13:52:41;6.82;;;3.42;;
37785;SDS011;23625;48.784;9.336;2023-06-10T13:55:07;3.95;;;3.55;;
37785;SDS011;23625;48.784;9.336;2023-06-10T13:57:33;7.88;;;4.05;;
37785;SDS011;23625;48.784;9.336;2023-06-10T13:59:58;6.03;;;3.35;;
37785;SDS011;23625;48.784;9.336;2023-06-10T14:02:24;3.83;;;3.42;;
37785;SDS011;23625;48.784;9.336;2023-06-10T14:04:50;5.07;;;3.50;;
37785;SDS011;23625;48.784;9.336;2023-06-10T14:07:16;5.03;;;3.40;;
37785;SDS011;23625;48.784;9.336;2023-06-10T14:09:41;5.72;;;3.70;;
37785;SDS011;23625;48.784;9.336;2023-06-10T14:12:07;4.25;;;3.85;;
37785;SDS011;23625;48.784;9.336;2023-06-10T14:14:34;6.93;;;4.05;;
37785;SDS011;23625;48.784;9.336;2023-06-10T14:16:59;4.85;;;4.22;;
37785;SDS011;23625;48.784;9.336;2023-06-10T14:19:25;7.20;;;4.22;;
37785;SDS011;23625;48.784;9.336;2023-06-10T14:21:50;4.88;;;3.42;;
37785;SDS011;23625;48.784;9.336;2023-06-10T14:24:18;5.50;;;4.03;;
37785;SDS011;23625;48.784;9.336;2023-06-10T14:26:43;6.80;;;4.07;;
37785;SDS011;23625;48.784;9.336;2023-06-10T14:29:09;6.45;;;4.20;;
37785;SDS011;23625;48.784;9.336;2023-06-10T14:31:35;5.70;;;3.83;;
37785;SDS011;23625;48.784;9.336;2023-06-10T14:34:00;6.72;;;4.43;;
37785;SDS011;23625;48.784;9.336;2023-06-10T14:36:26;4.75;;;4.32;;
37785;SDS011;23625;48.784;9.336;2023-06-10T14:38:51;5.10;;;4.10;;
37785;SDS011;23625;48.784;9.336;2023-06-10T14:41:18;6.13;;;4.30;;
37785;SDS011;23625;48.784;9.336;2023-06-10T14:43:44;7.40;;;4.53;;
37785;SDS011;23625;48.784;9.336;2023-06-10T14:46:09;5.53;;;4.20;;
37785;SDS011;23625;48.784;9.336;2023-06-10T14:48:35;5.25;;;3.85;;
37785;SDS011;23625;48.784;9.336;2023-06-10T14:51:01;5.85;;;4.90;;
37785;SDS011;23625;48.784;9.336;2023-06-10T14:53:27;4.65;;;4.25;;
37785;SDS011;23625;48.784;9.336;2023-06-10T14:55:52;5.32;;;4.18;;